createdAt,value
2023-04-01T00:08:40.248Z,994.04
2023-04-01T00:23:40.393Z,993.94
2023-04-01T00:38:40.828Z,993.99
2023-04-01T00:53:40.542Z,993.97
2023-04-01T01:08:40.646Z,993.96
2023-04-01T01:23:41.217Z,993.96
2023-04-01T01:38:40.852Z,993.99
2023-04-01T01:53:40.953Z,994.08
2023-04-01T02:08:41.030Z,994.06
2023-04-01T02:23:41.643Z,994.18
2023-04-01T02:38:42.198Z,994.26
2023-04-01T02:53:42.383Z,994.34
2023-04-01T03:08:42.404Z,994.41
2023-04-01T03:23:42.997Z,994.42
2023-04-01T03:38:42.602Z,994.56
2023-04-01T03:53:42.696Z,994.62
2023-04-01T04:08:42.784Z,994.78
2023-04-01T04:23:42.931Z,994.89
2023-04-01T04:38:42.991Z,994.96
2023-04-01T04:53:43.080Z,995.09
2023-04-01T05:08:43.605Z,995.12
2023-04-01T05:23:43.339Z,995.21
2023-04-01T05:38:43.747Z,995.27
2023-04-01T05:53:43.464Z,995.36
2023-04-01T06:08:43.540Z,995.57
2023-04-01T06:23:43.709Z,995.73
2023-04-01T06:38:43.732Z,995.85
2023-04-01T06:53:43.846Z,995.93
2023-04-01T07:08:43.912Z,996.09
2023-04-01T07:23:44.106Z,996.25
2023-04-01T07:38:44.552Z,996.43
2023-04-01T07:53:44.192Z,996.63
2023-04-01T08:08:44.258Z,996.83
2023-04-01T08:23:44.427Z,996.86
2023-04-01T08:38:44.424Z,997.07
2023-04-01T08:53:44.558Z,997.13
2023-04-01T09:08:45.068Z,997.20
2023-04-01T09:23:44.761Z,997.40
2023-04-01T09:38:44.847Z,997.68
2023-04-01T09:53:44.958Z,997.77
2023-04-01T10:08:45.032Z,997.89
2023-04-01T10:23:45.180Z,998.04
2023-04-01T10:38:45.195Z,998.13
2023-04-01T10:53:45.329Z,998.23
2023-04-01T11:08:45.387Z,998.38
2023-04-01T11:23:49.306Z,998.52
2023-04-01T11:38:51.008Z,998.70
2023-04-01T11:53:50.672Z,998.82
2023-04-01T12:08:50.837Z,998.98
2023-04-01T12:23:51.205Z,999.17
2023-04-01T12:38:51.065Z,999.27
2023-04-01T12:53:51.771Z,999.57
2023-04-01T13:08:52.632Z,999.74
2023-04-01T13:23:53.391Z,999.96
2023-04-01T13:38:54.021Z,1000.06
2023-04-01T13:53:54.623Z,1000.23
2023-04-01T14:08:54.854Z,1000.36
2023-04-01T14:23:55.508Z,1000.58
2023-04-01T14:38:56.025Z,1000.75
2023-04-01T14:53:56.583Z,1000.98
2023-04-01T15:08:56.941Z,1001.15
2023-04-01T15:23:57.573Z,1001.35
2023-04-01T15:38:58.319Z,1001.51
2023-04-01T15:53:58.588Z,1001.72
2023-04-01T16:08:58.784Z,1002.00
2023-04-01T16:23:59.492Z,1002.30
2023-04-01T16:39:00.089Z,1002.50
2023-04-01T16:54:00.113Z,1002.73
2023-04-01T17:09:00.227Z,1003.02
2023-04-01T17:24:00.343Z,1003.31
2023-04-01T17:39:00.391Z,1003.67
2023-04-01T17:54:00.463Z,1003.90
2023-04-01T18:09:00.620Z,1004.13
2023-04-01T18:24:02.628Z,1004.45
2023-04-01T18:39:02.837Z,1004.71
2023-04-01T18:54:02.933Z,1005.02
2023-04-01T19:09:03.036Z,1005.19
2023-04-01T19:24:03.816Z,1005.39
2023-04-01T19:39:04.980Z,1005.73
2023-04-01T19:54:05.946Z,1006.04
2023-04-01T20:09:05.683Z,1006.34
2023-04-01T20:24:05.824Z,1006.64
2023-04-01T20:39:05.863Z,1006.84
2023-04-01T20:54:05.968Z,1007.10
2023-04-01T21:09:06.110Z,1007.19
2023-04-01T21:24:06.556Z,1007.47
2023-04-01T21:39:06.696Z,1007.78
2023-04-01T21:54:07.187Z,1008.05
2023-04-01T22:09:06.889Z,1008.25
2023-04-01T22:24:06.983Z,1008.34
2023-04-01T22:39:07.151Z,1008.67
2023-04-01T22:54:07.609Z,1008.89
2023-04-01T23:09:07.538Z,1008.89
2023-04-01T23:24:07.858Z,1009.38
2023-04-01T23:39:08.019Z,1009.55
2023-04-01T23:54:08.569Z,1009.64
